Time;durP1;ratioP1;P1;durP2;ratioP2;P2;SDS_P1;SDS_P2;PMS_P1;PMS_P2;Temp;Humidity;BMP_temperature;BMP_pressure;BME280_temperature;BME280_humidity;BME280_pressure;Samples;Min_cycle;Max_cycle;Signal;HPM_P1;HPM_P2
2022/03/11 00:00:42;;;;;;;20.45;13.75;;;7.00;99.90;;;;;;4996563;28;20125;-67
2022/03/11 00:03:08;;;;;;;20.73;13.73;;;7.00;99.90;;;;;;4996834;28;20061;-69
2022/03/11 00:05:33;;;;;;;20.60;14.38;;;7.10;99.90;;;;;;4997467;28;20034;-68
2022/03/11 00:07:59;;;;;;;18.45;13.55;;;7.00;99.90;;;;;;4997458;28;20057;-69
2022/03/11 00:10:24;;;;;;;17.33;12.77;;;7.00;99.90;;;;;;4997508;28;20142;-68
2022/03/11 00:12:50;;;;;;;20.13;13.95;;;6.90;99.90;;;;;;4996043;28;20415;-68
2022/03/11 00:15:16;;;;;;;19.45;13.90;;;6.90;99.90;;;;;;4995930;28;20042;-69
2022/03/11 00:17:42;;;;;;;24.05;13.55;;;7.00;99.90;;;;;;4997307;28;20063;-68
2022/03/11 00:20:07;;;;;;;23.20;14.07;;;6.90;99.90;;;;;;4996817;28;20344;-67
2022/03/11 00:22:36;;;;;;;17.88;14.02;;;6.90;99.90;;;;;;4996756;28;20046;-68
2022/03/11 00:25:02;;;;;;;20.85;13.98;;;6.90;99.90;;;;;;4996002;28;20039;-69
2022/03/11 00:27:28;;;;;;;18.50;13.93;;;6.80;99.90;;;;;;4996954;28;20160;-70
2022/03/11 00:29:54;;;;;;;20.58;14.02;;;6.80;99.90;;;;;;4996856;28;20464;-69
2022/03/11 00:32:20;;;;;;;19.58;13.65;;;6.80;99.90;;;;;;4996004;28;20042;-70
2022/03/11 00:34:45;;;;;;;18.40;12.55;;;6.80;99.90;;;;;;4997149;28;20060;-69
2022/03/11 00:37:11;;;;;;;20.30;13.85;;;6.70;99.90;;;;;;4996923;28;20125;-68
2022/03/11 00:39:37;;;;;;;18.73;13.73;;;6.70;99.90;;;;;;4995370;28;20038;-70
2022/03/11 00:42:03;;;;;;;17.50;13.27;;;6.70;99.90;;;;;;4996683;28;20133;-67
2022/03/11 00:44:29;;;;;;;19.83;13.98;;;6.70;99.90;;;;;;4996829;28;20077;-68
2022/03/11 00:46:55;;;;;;;22.85;14.27;;;6.70;99.90;;;;;;4996753;28;20364;-70
2022/03/11 00:49:20;;;;;;;18.40;13.93;;;6.60;99.90;;;;;;4995747;28;20130;-68
2022/03/11 00:51:46;;;;;;;22.25;14.88;;;6.60;99.90;;;;;;4996627;28;20197;-69
2022/03/11 00:54:12;;;;;;;22.98;13.43;;;6.60;99.90;;;;;;4996281;28;20109;-68
2022/03/11 00:56:37;;;;;;;22.15;14.00;;;6.60;99.90;;;;;;4996128;28;20034;-68
2022/03/11 00:59:03;;;;;;;21.65;15.82;;;6.60;99.90;;;;;;4996180;28;20093;-67
2022/03/11 01:01:29;;;;;;;18.90;13.82;;;6.60;99.90;;;;;;4996331;28;20065;-68
2022/03/11 01:03:54;;;;;;;19.00;14.35;;;6.50;99.90;;;;;;4995085;28;20104;-67
2022/03/11 01:06:20;;;;;;;20.10;14.40;;;6.50;99.90;;;;;;4996348;28;20121;-68
2022/03/11 01:08:45;;;;;;;21.52;14.20;;;6.50;99.90;;;;;;4996156;28;20089;-68
2022/03/11 01:11:11;;;;;;;19.67;14.38;;;6.50;99.90;;;;;;4995262;28;20392;-70
2022/03/11 01:13:38;;;;;;;21.23;14.43;;;6.40;99.90;;;;;;4995368;28;20042;-70
2022/03/11 01:16:04;;;;;;;18.90;13.35;;;6.40;99.90;;;;;;4996402;28;20046;-67
2022/03/11 01:18:31;;;;;;;18.50;13.75;;;6.30;99.90;;;;;;4996278;28;20077;-68
2022/03/11 01:20:56;;;;;;;20.02;14.18;;;6.30;99.90;;;;;;4995868;28;20046;-67
2022/03/11 01:23:22;;;;;;;20.10;14.50;;;6.30;99.90;;;;;;4995470;28;20125;-68
2022/03/11 01:25:48;;;;;;;21.30;15.77;;;6.30;99.90;;;;;;4995669;28;20053;-69
2022/03/11 01:28:13;;;;;;;20.38;14.40;;;6.20;99.90;;;;;;4995537;28;20072;-69
2022/03/11 01:30:40;;;;;;;20.52;14.23;;;6.20;99.90;;;;;;4996005;28;20054;-69
2022/03/11 01:33:05;;;;;;;21.05;14.00;;;6.20;99.90;;;;;;4995868;28;20046;-69
2022/03/11 01:35:31;;;;;;;19.65;14.73;;;6.10;99.90;;;;;;4995961;28;20334;-68
2022/03/11 01:37:57;;;;;;;19.05;14.68;;;6.10;99.90;;;;;;4994869;28;20424;-68
2022/03/11 01:40:23;;;;;;;18.92;13.85;;;6.10;99.90;;;;;;4995470;28;20034;-68
2022/03/11 01:42:48;;;;;;;19.45;14.45;;;6.10;99.90;;;;;;4994699;28;20441;-68
2022/03/11 01:45:14;;;;;;;19.85;14.63;;;6.00;99.90;;;;;;4995339;28;20065;-67
2022/03/11 01:47:39;;;;;;;24.08;14.48;;;6.00;99.90;;;;;;4994803;28;20109;-68
2022/03/11 01:50:05;;;;;;;23.13;14.45;;;6.00;99.90;;;;;;4995138;28;20096;-67
2022/03/11 01:52:31;;;;;;;19.75;13.60;;;6.00;99.90;;;;;;4995836;28;20046;-68
2022/03/11 01:54:57;;;;;;;19.58;14.23;;;5.90;99.90;;;;;;4995100;28;20026;-69
2022/03/11 01:57:24;;;;;;;20.85;13.88;;;5.90;99.90;;;;;;4996541;28;20116;-68
2022/03/11 01:59:49;;;;;;;19.98;14.30;;;5.90;99.90;;;;;;5014705;28;20456;-68
2022/03/11 02:02:15;;;;;;;19.98;14.10;;;5.80;99.90;;;;;;5015061;28;20052;-70
2022/03/11 02:04:41;;;;;;;19.55;13.27;;;5.80;99.90;;;;;;4997705;28;20128;-68
2022/03/11 02:07:07;;;;;;;21.58;14.52;;;5.80;99.90;;;;;;4997967;28;20037;-70
2022/03/11 02:09:33;;;;;;;19.73;13.82;;;5.80;99.90;;;;;;5001605;28;20038;-69
2022/03/11 02:11:59;;;;;;;17.75;13.77;;;5.80;99.90;;;;;;4995357;28;20085;-69
2022/03/11 02:14:24;;;;;;;18.67;13.02;;;5.80;99.90;;;;;;4995566;28;20139;-68
2022/03/11 02:16:50;;;;;;;18.25;13.43;;;5.80;99.90;;;;;;4995385;28;20492;-69
2022/03/11 02:19:15;;;;;;;17.65;13.98;;;5.70;99.90;;;;;;4995731;28;20042;-72
2022/03/11 02:21:44;;;;;;;17.13;12.90;;;5.70;99.90;;;;;;4994957;28;20457;-69
2022/03/11 02:24:10;;;;;;;22.58;14.10;;;5.70;99.90;;;;;;4996184;28;20046;-68
2022/03/11 02:26:36;;;;;;;19.77;14.05;;;5.60;99.90;;;;;;4995371;28;20050;-68
2022/03/11 02:29:03;;;;;;;20.95;13.73;;;5.60;99.90;;;;;;5014671;28;20139;-67
2022/03/11 02:31:30;;;;;;;18.42;13.30;;;5.60;99.90;;;;;;5014562;28;20050;-71
2022/03/11 02:33:57;;;;;;;17.98;13.32;;;5.60;99.90;;;;;;4997758;28;20160;-69
2022/03/11 02:36:23;;;;;;;18.45;12.63;;;5.50;99.90;;;;;;4997546;28;20045;-68
2022/03/11 02:38:49;;;;;;;20.60;13.10;;;5.40;99.90;;;;;;4996527;28;20049;-68
2022/03/11 02:41:15;;;;;;;18.25;12.95;;;5.40;99.90;;;;;;5014171;28;20049;-67
2022/03/11 02:43:42;;;;;;;19.75;12.90;;;5.40;99.90;;;;;;5014637;28;20081;-68
2022/03/11 02:46:08;;;;;;;20.30;13.73;;;5.40;99.90;;;;;;5014491;28;20045;-68
2022/03/11 02:48:34;;;;;;;20.50;13.25;;;5.40;99.90;;;;;;4997634;28;20072;-69
2022/03/11 02:51:00;;;;;;;19.77;13.05;;;5.30;99.90;;;;;;4995880;28;20053;-68
2022/03/11 02:53:26;;;;;;;17.90;12.88;;;5.40;99.90;;;;;;4994828;28;20049;-69
2022/03/11 02:55:52;;;;;;;21.83;12.75;;;5.30;99.90;;;;;;4994780;28;20054;-68
2022/03/11 02:58:18;;;;;;;17.20;12.18;;;5.30;99.90;;;;;;4997177;28;20352;-68
2022/03/11 03:00:44;;;;;;;19.23;13.05;;;5.30;99.90;;;;;;4994163;28;20051;-67
2022/03/11 03:03:09;;;;;;;18.75;13.05;;;5.20;99.90;;;;;;4998391;28;20429;-69
2022/03/11 03:05:35;;;;;;;19.00;13.32;;;5.20;99.90;;;;;;4998498;28;20393;-68
2022/03/11 03:08:01;;;;;;;17.40;12.35;;;5.20;99.90;;;;;;4998330;28;20103;-67
2022/03/11 03:10:26;;;;;;;17.80;12.23;;;5.20;99.90;;;;;;4998331;28;20038;-68
2022/03/11 03:12:52;;;;;;;18.40;12.30;;;5.10;99.90;;;;;;4998224;28;20153;-69
2022/03/11 03:15:18;;;;;;;18.52;11.80;;;5.10;99.90;;;;;;4997743;28;20046;-67
2022/03/11 03:17:43;;;;;;;19.73;13.38;;;5.10;99.90;;;;;;4997733;28;20038;-68
2022/03/11 03:20:09;;;;;;;22.33;13.45;;;5.10;99.90;;;;;;4997990;28;20039;-68
2022/03/11 03:22:35;;;;;;;18.70;12.73;;;5.10;99.90;;;;;;4997693;28;20480;-68
2022/03/11 03:25:03;;;;;;;17.20;11.73;;;5.10;99.90;;;;;;4996606;28;20104;-67
2022/03/11 03:27:28;;;;;;;17.88;12.65;;;5.10;99.90;;;;;;4998110;28;20396;-67
2022/03/11 03:29:54;;;;;;;17.73;12.75;;;5.10;99.90;;;;;;4998449;28;20046;-69
2022/03/11 03:32:19;;;;;;;18.33;12.73;;;5.10;99.90;;;;;;4998254;28;20049;-68
2022/03/11 03:34:45;;;;;;;18.13;11.98;;;5.00;99.90;;;;;;4997718;28;20042;-67
2022/03/11 03:37:12;;;;;;;16.83;12.27;;;5.00;99.90;;;;;;4997944;28;20042;-69
2022/03/11 03:39:40;;;;;;;19.40;12.52;;;5.00;99.90;;;;;;4996241;28;20038;-70
2022/03/11 03:42:06;;;;;;;17.83;12.57;;;5.00;99.90;;;;;;4997321;28;20046;-68
2022/03/11 03:44:32;;;;;;;17.52;12.90;;;5.00;99.90;;;;;;4997932;28;20034;-69
2022/03/11 03:46:58;;;;;;;20.10;12.90;;;5.00;99.90;;;;;;4997747;28;20082;-68
2022/03/11 03:49:25;;;;;;;18.98;12.77;;;5.00;99.90;;;;;;4997532;28;20128;-67
2022/03/11 03:51:51;;;;;;;18.55;13.10;;;5.00;99.90;;;;;;4996734;28;20043;-70
2022/03/11 03:54:17;;;;;;;18.70;12.50;;;5.00;99.90;;;;;;4996794;28;20157;-68
2022/03/11 03:56:44;;;;;;;25.48;13.68;;;5.00;99.90;;;;;;4997105;28;20061;-69
2022/03/11 03:59:11;;;;;;;21.63;13.35;;;5.00;99.90;;;;;;4996306;28;20053;-68
2022/03/11 04:01:39;;;;;;;16.42;13.13;;;5.00;99.90;;;;;;4997457;28;20092;-69
2022/03/11 04:04:06;;;;;;;18.92;13.50;;;5.00;99.90;;;;;;4997783;28;20404;-69
2022/03/11 04:06:32;;;;;;;21.17;13.85;;;4.90;99.90;;;;;;4996627;28;20054;-69
2022/03/11 04:08:59;;;;;;;20.20;13.60;;;5.00;99.90;;;;;;4997075;28;20046;-68
2022/03/11 04:11:26;;;;;;;19.70;13.85;;;4.90;99.90;;;;;;4996509;28;20043;-69
2022/03/11 04:13:56;;;;;;;19.23;12.93;;;5.00;99.90;;;;;;4997101;28;20463;-69
2022/03/11 04:16:22;;;;;;;19.83;13.40;;;5.00;99.90;;;;;;4997519;28;20054;-68
2022/03/11 04:18:49;;;;;;;19.65;14.07;;;4.90;99.90;;;;;;4996647;28;20108;-68
2022/03/11 04:21:15;;;;;;;24.70;14.65;;;4.90;99.90;;;;;;4996952;28;20065;-68
2022/03/11 04:23:42;;;;;;;17.70;13.95;;;4.90;99.90;;;;;;4996862;28;20376;-68
2022/03/11 04:26:08;;;;;;;24.05;15.00;;;4.90;99.90;;;;;;4995601;28;20054;-68
2022/03/11 04:28:33;;;;;;;25.63;14.30;;;4.90;99.90;;;;;;4996165;28;20050;-67
2022/03/11 04:30:59;;;;;;;21.83;14.32;;;4.90;99.90;;;;;;4997423;28;20463;-69
2022/03/11 04:33:26;;;;;;;21.45;14.55;;;4.90;99.90;;;;;;4997105;28;20058;-69
2022/03/11 04:35:52;;;;;;;20.60;14.55;;;4.90;99.90;;;;;;4996589;28;20121;-68
2022/03/11 04:38:18;;;;;;;21.45;14.52;;;4.90;99.90;;;;;;4996485;28;20042;-68
2022/03/11 04:40:43;;;;;;;22.05;15.32;;;4.90;99.90;;;;;;4996892;28;20056;-68
2022/03/11 04:43:09;;;;;;;22.77;14.18;;;4.80;99.90;;;;;;4996999;28;20050;-68
2022/03/11 04:45:35;;;;;;;22.08;15.55;;;4.90;99.90;;;;;;4993090;28;20355;-69
2022/03/11 04:48:00;;;;;;;25.50;15.90;;;4.90;99.90;;;;;;4996672;28;20046;-68
2022/03/11 04:50:26;;;;;;;22.45;14.70;;;4.80;99.90;;;;;;4995271;28;20428;-70
2022/03/11 04:52:52;;;;;;;24.40;15.52;;;4.80;99.90;;;;;;4995761;28;20057;-71
2022/03/11 04:55:19;;;;;;;25.33;16.27;;;4.80;99.90;;;;;;4996158;28;20030;-67
2022/03/11 04:57:45;;;;;;;20.83;15.13;;;4.80;99.90;;;;;;4996620;28;20396;-68
2022/03/11 05:00:12;;;;;;;25.05;15.80;;;4.80;99.90;;;;;;4996429;28;20086;-68
2022/03/11 05:02:40;;;;;;;21.83;15.40;;;4.80;99.90;;;;;;4996728;28;20089;-68
2022/03/11 05:05:06;;;;;;;43.42;16.45;;;4.70;99.90;;;;;;4996412;28;20372;-68
2022/03/11 05:07:32;;;;;;;22.95;16.30;;;4.70;99.90;;;;;;4995927;28;20050;-68
2022/03/11 05:09:57;;;;;;;22.20;16.17;;;4.70;99.90;;;;;;4996240;28;20046;-68
2022/03/11 05:12:23;;;;;;;22.58;15.38;;;4.60;99.90;;;;;;4995729;28;20069;-69
2022/03/11 05:14:50;;;;;;;22.08;15.15;;;4.60;99.90;;;;;;4996367;28;20065;-67
2022/03/11 05:17:16;;;;;;;23.50;16.38;;;4.60;99.90;;;;;;4995928;28;20436;-68
2022/03/11 05:19:42;;;;;;;26.67;17.00;;;4.60;99.90;;;;;;4994995;28;20042;-67
2022/03/11 05:22:08;;;;;;;25.33;16.15;;;4.60;99.90;;;;;;4995077;28;20073;-67
2022/03/11 05:24:34;;;;;;;28.13;16.63;;;4.50;99.90;;;;;;4994410;28;20077;-68
2022/03/11 05:27:01;;;;;;;26.17;16.50;;;4.50;99.90;;;;;;4996137;28;20038;-68
2022/03/11 05:29:28;;;;;;;25.80;17.08;;;4.50;99.90;;;;;;4996056;28;20060;-69
2022/03/11 05:31:53;;;;;;;23.25;16.42;;;4.50;99.90;;;;;;4995927;28;20053;-68
2022/03/11 05:34:19;;;;;;;24.17;16.83;;;4.40;99.90;;;;;;4995624;28;20038;-69
2022/03/11 05:36:44;;;;;;;23.13;16.42;;;4.40;99.90;;;;;;4995001;28;20453;-67
2022/03/11 05:39:10;;;;;;;29.85;17.75;;;4.40;99.90;;;;;;4994528;28;20049;-69
2022/03/11 05:41:35;;;;;;;25.35;17.05;;;4.40;99.90;;;;;;4994840;28;20046;-67
2022/03/11 05:44:01;;;;;;;27.27;17.27;;;4.40;99.90;;;;;;4995827;28;20042;-67
2022/03/11 05:46:26;;;;;;;30.33;19.15;;;4.40;99.90;;;;;;4995611;28;20349;-67
2022/03/11 05:48:52;;;;;;;25.38;16.88;;;4.40;99.90;;;;;;4994815;28;20045;-68
2022/03/11 05:51:17;;;;;;;29.50;18.92;;;4.30;99.90;;;;;;4994989;28;20061;-68
2022/03/11 05:53:43;;;;;;;29.80;18.20;;;4.30;99.90;;;;;;4995384;28;20038;-68
2022/03/11 05:56:08;;;;;;;27.70;18.60;;;4.30;99.90;;;;;;4995217;28;20034;-68
2022/03/11 05:58:34;;;;;;;28.52;18.35;;;4.30;99.90;;;;;;5005818;28;20341;-68
2022/03/11 06:01:00;;;;;;;27.25;19.23;;;4.30;99.90;;;;;;4996917;28;20053;-67
2022/03/11 06:03:26;;;;;;;27.85;19.17;;;4.40;99.90;;;;;;4995329;28;20050;-69
2022/03/11 06:05:52;;;;;;;25.42;18.63;;;4.30;99.90;;;;;;5011799;28;20056;-68
2022/03/11 06:08:17;;;;;;;28.98;18.67;;;4.20;99.90;;;;;;5015274;28;20046;-68
2022/03/11 06:10:44;;;;;;;28.90;19.52;;;4.20;99.90;;;;;;5015061;28;20141;-67
2022/03/11 06:13:10;;;;;;;28.38;19.40;;;4.20;99.90;;;;;;4998165;28;20041;-68
2022/03/11 06:15:35;;;;;;;29.88;19.67;;;4.30;99.90;;;;;;5014618;28;20084;-69
2022/03/11 06:18:01;;;;;;;25.65;17.98;;;4.20;99.90;;;;;;4988266;28;20038;-68
2022/03/11 06:20:30;;;;;;;29.55;17.95;;;4.20;99.90;;;;;;4995100;28;20125;-67
2022/03/11 06:22:56;;;;;;;30.92;18.83;;;4.20;99.90;;;;;;4995320;28;20101;-68
2022/03/11 06:25:22;;;;;;;28.38;19.08;;;4.30;99.90;;;;;;4985910;28;20045;-67
2022/03/11 06:27:51;;;;;;;30.70;20.40;;;4.30;99.90;;;;;;5014406;28;20464;-67
2022/03/11 06:30:16;;;;;;;30.80;20.02;;;4.30;99.90;;;;;;5014866;28;20117;-69
2022/03/11 06:32:44;;;;;;;32.92;21.45;;;4.20;99.90;;;;;;5013588;28;20092;-69
2022/03/11 06:35:13;;;;;;;31.17;19.58;;;4.30;99.90;;;;;;4998028;28;20037;-67
2022/03/11 06:37:44;;;;;;;28.52;19.65;;;4.20;99.90;;;;;;5001640;28;20050;-68
2022/03/11 06:40:11;;;;;;;30.45;20.17;;;4.30;99.90;;;;;;5018573;28;20092;-68
2022/03/11 06:42:42;;;;;;;32.92;20.80;;;4.30;99.90;;;;;;5016834;28;20050;-68
2022/03/11 06:45:09;;;;;;;30.67;20.58;;;4.20;99.90;;;;;;5018560;28;20057;-68
2022/03/11 06:47:35;;;;;;;31.45;19.90;;;4.30;99.90;;;;;;5018330;28;20054;-68
2022/03/11 06:50:02;;;;;;;32.33;20.30;;;4.30;99.90;;;;;;5018304;28;20038;-67
2022/03/11 06:52:27;;;;;;;28.30;20.00;;;4.30;99.90;;;;;;5000850;28;20332;-68
2022/03/11 06:54:53;;;;;;;31.30;20.02;;;4.30;99.90;;;;;;5015832;28;20053;-67
2022/03/11 06:57:18;;;;;;;32.28;20.92;;;4.30;99.90;;;;;;4998292;28;20503;-68
2022/03/11 06:59:44;;;;;;;30.30;20.23;;;4.30;99.90;;;;;;4998231;28;20093;-68
2022/03/11 07:02:10;;;;;;;28.85;18.83;;;4.30;99.90;;;;;;4998075;28;20034;-69
2022/03/11 07:04:36;;;;;;;30.25;19.55;;;4.40;99.90;;;;;;4998173;28;20096;-67
2022/03/11 07:07:01;;;;;;;29.15;19.85;;;4.40;99.90;;;;;;4997895;28;20038;-67
2022/03/11 07:09:27;;;;;;;31.67;19.63;;;4.40;99.90;;;;;;4997185;28;20360;-68
2022/03/11 07:11:57;;;;;;;29.63;19.25;;;4.50;99.90;;;;;;4998374;28;20045;-69
2022/03/11 07:14:23;;;;;;;31.50;20.58;;;4.50;99.90;;;;;;4997071;28;20081;-68
2022/03/11 07:16:52;;;;;;;28.80;20.15;;;4.50;99.90;;;;;;4997880;28;20042;-67
2022/03/11 07:19:18;;;;;;;33.22;21.20;;;4.40;99.90;;;;;;4997332;28;20129;-68
2022/03/11 07:21:44;;;;;;;31.95;20.10;;;4.50;99.90;;;;;;4997208;28;20042;-67
2022/03/11 07:24:09;;;;;;;31.38;19.73;;;4.50;99.90;;;;;;4997397;28;20116;-68
2022/03/11 07:26:35;;;;;;;30.60;19.85;;;4.50;99.90;;;;;;4997224;28;20081;-69
2022/03/11 07:29:02;;;;;;;27.85;19.30;;;4.50;99.90;;;;;;4997650;28;20445;-67
2022/03/11 07:31:28;;;;;;;28.58;19.63;;;4.60;99.90;;;;;;4997722;28;20050;-67
2022/03/11 07:33:55;;;;;;;31.05;19.27;;;4.70;99.90;;;;;;4996816;28;20038;-67
2022/03/11 07:36:20;;;;;;;33.63;20.95;;;4.70;99.90;;;;;;4996864;28;20070;-67
2022/03/11 07:38:46;;;;;;;29.98;20.73;;;4.70;99.90;;;;;;4998048;28;20093;-68
2022/03/11 07:41:14;;;;;;;28.45;19.77;;;4.70;99.90;;;;;;4996879;28;20046;-66
2022/03/11 07:43:42;;;;;;;29.50;19.08;;;4.70;99.90;;;;;;4997796;28;20042;-67
2022/03/11 07:46:08;;;;;;;28.10;18.63;;;4.70;99.90;;;;;;4997069;28;20523;-66
2022/03/11 07:48:34;;;;;;;30.38;21.42;;;4.80;99.90;;;;;;4996414;28;20078;-66
2022/03/11 07:51:02;;;;;;;36.60;20.70;;;4.80;99.90;;;;;;4996990;28;20077;-68
2022/03/11 07:53:27;;;;;;;35.08;20.40;;;4.80;99.90;;;;;;4997562;28;20152;-67
2022/03/11 07:55:53;;;;;;;31.02;20.05;;;4.90;99.90;;;;;;4995819;28;20074;-68
2022/03/11 07:58:21;;;;;;;29.90;21.52;;;4.90;99.90;;;;;;4997280;28;20145;-69
2022/03/11 08:00:48;;;;;;;30.75;20.75;;;4.90;99.90;;;;;;4997561;28;20396;-66
2022/03/11 08:03:17;;;;;;;33.28;21.00;;;5.00;99.90;;;;;;4997345;28;20108;-66
2022/03/11 08:05:43;;;;;;;31.30;20.38;;;5.00;99.90;;;;;;4997593;28;20053;-67
2022/03/11 08:08:09;;;;;;;29.45;20.05;;;5.00;99.90;;;;;;4997378;28;20053;-68
2022/03/11 08:10:36;;;;;;;33.80;20.00;;;5.10;99.90;;;;;;4996875;28;20133;-66
2022/03/11 08:13:02;;;;;;;30.60;20.63;;;5.10;99.90;;;;;;4996951;28;20034;-66
2022/03/11 08:15:28;;;;;;;30.17;19.77;;;5.10;99.90;;;;;;4996157;28;20047;-68
2022/03/11 08:17:54;;;;;;;29.33;20.50;;;5.20;99.90;;;;;;4997224;28;20052;-67
2022/03/11 08:20:20;;;;;;;29.50;19.92;;;5.30;99.90;;;;;;4997366;28;20445;-70
2022/03/11 08:22:45;;;;;;;30.90;20.30;;;5.30;99.90;;;;;;4997122;28;20034;-69
2022/03/11 08:25:11;;;;;;;29.27;19.13;;;5.40;99.90;;;;;;4996618;28;20117;-69
2022/03/11 08:27:39;;;;;;;28.88;20.50;;;5.40;99.90;;;;;;4996470;28;20089;-68
2022/03/11 08:30:09;;;;;;;30.35;18.88;;;5.50;99.90;;;;;;4996966;28;20329;-68
2022/03/11 08:32:35;;;;;;;29.00;20.48;;;5.50;99.90;;;;;;4997059;28;20046;-68
2022/03/11 08:35:00;;;;;;;28.80;19.42;;;5.60;99.90;;;;;;4996255;28;20125;-67
2022/03/11 08:37:26;;;;;;;28.48;18.95;;;5.60;99.90;;;;;;4996807;28;20074;-67
2022/03/11 08:39:52;;;;;;;28.50;18.95;;;5.70;99.90;;;;;;4996102;28;20057;-67
2022/03/11 08:42:18;;;;;;;31.13;19.33;;;5.80;99.90;;;;;;4996822;28;20038;-67
2022/03/11 08:44:44;;;;;;;29.83;19.02;;;5.80;99.90;;;;;;4996481;28;20038;-67
2022/03/11 08:47:10;;;;;;;26.88;19.10;;;5.90;99.90;;;;;;4992789;28;20053;-68
2022/03/11 08:49:36;;;;;;;26.60;18.23;;;6.00;99.90;;;;;;4996552;28;20096;-68
2022/03/11 08:52:02;;;;;;;27.15;18.42;;;6.00;99.90;;;;;;4996552;28;20042;-68
2022/03/11 08:54:28;;;;;;;29.25;19.90;;;6.10;99.90;;;;;;4995655;28;20038;-68
2022/03/11 08:56:54;;;;;;;28.52;19.17;;;6.20;99.90;;;;;;4995891;28;20042;-67
2022/03/11 08:59:20;;;;;;;30.30;19.42;;;6.30;99.90;;;;;;5011422;28;20053;-70
2022/03/11 09:01:46;;;;;;;25.77;19.20;;;6.30;99.90;;;;;;4998449;28;20057;-67
2022/03/11 09:04:11;;;;;;;29.50;18.65;;;6.40;99.90;;;;;;5015792;28;20042;-68
2022/03/11 09:06:37;;;;;;;29.70;19.40;;;6.40;99.90;;;;;;5015703;28;20069;-66
2022/03/11 09:09:03;;;;;;;32.22;20.00;;;6.50;99.90;;;;;;5006328;28;20053;-70
2022/03/11 09:11:28;;;;;;;27.90;18.83;;;6.50;99.90;;;;;;4979176;28;20069;-69
2022/03/11 09:13:54;;;;;;;26.00;17.75;;;6.60;99.90;;;;;;4995990;28;20064;-68
2022/03/11 09:16:20;;;;;;;31.38;18.98;;;6.60;99.90;;;;;;4996040;28;20046;-71
2022/03/11 09:18:46;;;;;;;28.40;19.48;;;6.70;99.90;;;;;;4979244;28;20050;-69
2022/03/11 09:21:12;;;;;;;26.20;18.95;;;6.70;99.90;;;;;;4995645;28;20112;-69
2022/03/11 09:23:39;;;;;;;29.27;18.65;;;6.70;99.90;;;;;;5003300;28;20044;-69
2022/03/11 09:26:04;;;;;;;29.00;17.75;;;6.80;99.90;;;;;;5015204;28;20072;-69
2022/03/11 09:28:31;;;;;;;26.45;18.55;;;6.90;99.90;;;;;;5015371;28;20440;-70
2022/03/11 09:30:57;;;;;;;28.17;19.10;;;6.90;99.90;;;;;;5015528;28;20041;-69
2022/03/11 09:33:24;;;;;;;26.73;19.08;;;7.00;99.90;;;;;;4998465;28;20057;-70
2022/03/11 09:35:50;;;;;;;26.95;18.58;;;7.00;99.90;;;;;;5014680;28;20052;-68
2022/03/11 09:38:15;;;;;;;27.40;18.80;;;7.10;99.90;;;;;;4997842;28;20053;-69
2022/03/11 09:40:43;;;;;;;28.63;19.85;;;7.10;99.90;;;;;;5015082;28;20038;-67
2022/03/11 09:43:11;;;;;;;28.83;18.08;;;7.20;99.90;;;;;;5009711;28;20104;-68
2022/03/11 09:45:37;;;;;;;30.70;18.85;;;7.20;99.90;;;;;;4995843;28;20371;-68
2022/03/11 09:48:04;;;;;;;25.15;19.23;;;7.20;99.90;;;;;;4995700;28;20038;-67
2022/03/11 09:50:30;;;;;;;29.98;20.00;;;7.30;99.90;;;;;;4978133;28;20091;-68
2022/03/11 09:52:57;;;;;;;25.90;18.60;;;7.30;99.90;;;;;;4995042;28;20046;-70
2022/03/11 09:55:22;;;;;;;27.05;18.92;;;7.40;99.90;;;;;;4995559;28;20049;-70
2022/03/11 09:57:49;;;;;;;24.88;18.63;;;7.40;99.90;;;;;;4996462;28;20042;-71
2022/03/11 10:00:15;;;;;;;25.92;17.98;;;7.40;99.90;;;;;;4978235;28;20508;-69
2022/03/11 10:02:43;;;;;;;28.55;19.38;;;7.50;99.90;;;;;;4995514;28;20054;-69
2022/03/11 10:05:08;;;;;;;27.98;19.02;;;7.50;99.90;;;;;;4995816;28;20544;-70
2022/03/11 10:07:34;;;;;;;27.40;19.52;;;7.50;99.90;;;;;;5010457;28;20125;-69
2022/03/11 10:10:14;;;;;;;29.08;20.00;;;7.60;99.90;;;;;;5014606;28;20038;-68
2022/03/11 10:12:42;;;;;;;28.55;18.05;;;7.60;99.90;;;;;;5015102;28;20065;-68
2022/03/11 10:15:08;;;;;;;29.27;19.55;;;7.70;99.90;;;;;;5014996;28;20057;-70
2022/03/11 10:17:39;;;;;;;29.90;19.98;;;7.70;99.90;;;;;;5014960;28;20049;-69
2022/03/11 10:20:08;;;;;;;29.60;19.95;;;7.80;99.90;;;;;;5012723;28;20069;-70
2022/03/11 10:22:34;;;;;;;28.85;18.30;;;7.80;99.90;;;;;;5014819;28;20343;-69
2022/03/11 10:25:16;;;;;;;26.95;18.98;;;7.90;99.90;;;;;;5013025;28;20096;-70
2022/03/11 10:28:01;;;;;;;26.20;19.00;;;7.90;99.90;;;;;;5014719;28;20057;-69
2022/03/11 10:30:28;;;;;;;27.63;18.85;;;8.00;99.90;;;;;;5005727;28;20046;-70
2022/03/11 10:32:55;;;;;;;26.67;18.70;;;8.00;99.90;;;;;;4978005;28;20042;-71
2022/03/11 10:35:40;;;;;;;28.83;19.83;;;8.10;99.90;;;;;;4995296;28;20074;-70
2022/03/11 10:38:11;;;;;;;26.55;19.13;;;8.10;99.90;;;;;;4979204;28;20058;-71
2022/03/11 10:40:57;;;;;;;29.30;19.15;;;8.20;99.90;;;;;;4995145;28;20113;-70
2022/03/11 10:43:25;;;;;;;27.90;18.98;;;8.20;99.90;;;;;;4995098;28;20105;-71
2022/03/11 10:45:52;;;;;;;29.48;19.73;;;8.20;99.90;;;;;;4996206;28;20396;-70
2022/03/11 10:48:44;;;;;;;27.17;19.08;;;8.30;99.90;;;;;;5014804;28;20034;-70
2022/03/11 10:51:11;;;;;;;28.58;20.48;;;8.40;99.90;;;;;;5014780;28;20042;-70
2022/03/11 10:53:38;;;;;;;30.92;20.35;;;8.40;99.90;;;;;;4997298;28;20050;-70
2022/03/11 10:56:07;;;;;;;26.90;19.65;;;8.50;99.90;;;;;;5014574;28;20053;-70
2022/03/11 10:58:34;;;;;;;28.60;19.55;;;8.50;99.90;;;;;;5014168;28;20048;-69
2022/03/11 11:01:00;;;;;;;28.35;19.73;;;8.60;99.90;;;;;;5014319;28;20132;-69
2022/03/11 11:03:26;;;;;;;30.85;20.60;;;8.70;99.90;;;;;;5014625;28;20129;-70
2022/03/11 11:05:52;;;;;;;27.20;20.40;;;8.80;99.90;;;;;;5014105;28;20053;-70
2022/03/11 11:08:18;;;;;;;27.33;20.25;;;8.90;99.90;;;;;;5014181;28;20133;-69
2022/03/11 11:10:45;;;;;;;29.90;20.02;;;8.90;99.90;;;;;;4997389;28;20069;-69
2022/03/11 11:13:11;;;;;;;28.58;19.05;;;8.90;99.90;;;;;;4983145;28;20042;-69
2022/03/11 11:15:41;;;;;;;32.45;21.38;;;9.00;99.90;;;;;;4995671;28;20034;-68
2022/03/11 11:18:16;;;;;;;27.38;19.52;;;9.10;99.90;;;;;;4994945;28;20042;-68
2022/03/11 11:20:51;;;;;;;28.63;21.17;;;9.20;99.90;;;;;;4994421;28;20050;-68
2022/03/11 11:23:17;;;;;;;30.02;20.60;;;9.20;99.90;;;;;;4980382;28;20096;-69
2022/03/11 11:25:43;;;;;;;28.83;20.70;;;9.30;99.90;;;;;;5008352;28;20073;-68
2022/03/11 11:28:15;;;;;;;29.02;20.73;;;9.40;99.90;;;;;;5017835;28;20095;-69
2022/03/11 11:30:41;;;;;;;31.10;20.60;;;9.40;99.90;;;;;;5017738;28;20451;-69
2022/03/11 11:33:07;;;;;;;29.63;21.00;;;9.40;99.90;;;;;;5016611;28;20100;-68
2022/03/11 11:35:39;;;;;;;29.25;21.35;;;9.50;99.90;;;;;;5000457;28;20045;-69
2022/03/11 11:38:07;;;;;;;33.03;20.33;;;9.50;99.90;;;;;;5017188;28;20116;-69
2022/03/11 11:40:38;;;;;;;30.98;21.88;;;9.50;99.90;;;;;;5017194;28;20049;-69
2022/03/11 11:43:13;;;;;;;26.80;21.00;;;9.60;99.90;;;;;;5000087;28;20080;-70
2022/03/11 11:45:49;;;;;;;29.33;20.88;;;9.70;99.90;;;;;;4996345;28;20122;-70
2022/03/11 11:48:34;;;;;;;34.15;20.95;;;9.70;99.90;;;;;;4997562;28;20038;-69
2022/03/11 11:51:02;;;;;;;32.75;21.20;;;9.80;99.90;;;;;;4997656;28;20425;-70
2022/03/11 11:53:48;;;;;;;28.00;20.77;;;9.80;99.90;;;;;;4998112;28;20042;-68
2022/03/11 11:56:45;;;;;;;30.58;21.80;;;9.90;99.90;;;;;;4997578;28;20425;-69
2022/03/11 11:59:29;;;;;;;28.60;20.25;;;10.00;99.90;;;;;;4997746;28;20129;-68
2022/03/11 12:01:56;;;;;;;31.92;21.67;;;10.00;99.90;;;;;;4996716;28;20038;-68
2022/03/11 12:04:38;;;;;;;28.95;21.63;;;10.10;99.90;;;;;;4996898;28;20497;-69
2022/03/11 12:07:16;;;;;;;32.42;21.20;;;10.20;99.90;;;;;;4996036;28;20053;-68
2022/03/11 12:09:42;;;;;;;33.35;21.83;;;10.30;99.90;;;;;;4997534;28;20053;-68
2022/03/11 12:12:08;;;;;;;31.45;22.42;;;10.30;99.90;;;;;;4996375;28;20367;-68
2022/03/11 12:14:57;;;;;;;36.15;22.77;;;10.30;99.90;;;;;;4997074;28;20120;-68
2022/03/11 12:17:36;;;;;;;28.50;21.33;;;10.40;99.60;;;;;;4984196;28;20062;-68
2022/03/11 12:20:26;;;;;;;30.92;21.25;;;10.50;99.70;;;;;;4996816;28;20082;-69
2022/03/11 12:23:12;;;;;;;25.25;20.42;;;10.60;99.00;;;;;;4996356;28;20034;-68
2022/03/11 12:25:58;;;;;;;33.53;21.70;;;10.60;99.30;;;;;;4996399;28;20038;-69
2022/03/11 12:28:27;;;;;;;31.02;21.48;;;10.70;98.70;;;;;;4996835;28;20113;-68
2022/03/11 12:31:04;;;;;;;29.73;20.98;;;10.70;98.60;;;;;;4996123;28;20046;-69
2022/03/11 12:33:33;;;;;;;27.10;20.45;;;10.70;98.70;;;;;;4996353;28;20423;-67
2022/03/11 12:36:03;;;;;;;30.30;20.63;;;10.80;99.00;;;;;;4996537;28;20046;-69